createdAt,value
2024-01-24T00:00:14.080Z,172.59
2024-01-24T00:01:14.092Z,170.52
2024-01-24T00:02:14.050Z,169.81
2024-01-24T00:03:14.195Z,168.51
2024-01-24T00:04:14.239Z,169.32
2024-01-24T00:05:14.173Z,170.62
2024-01-24T00:06:14.283Z,170.15
2024-01-24T00:07:14.208Z,169.80
2024-01-24T00:08:14.214Z,167.86
2024-01-24T00:09:14.280Z,166.13
2024-01-24T00:10:14.256Z,167.94
2024-01-24T00:11:14.325Z,165.85
2024-01-24T00:12:14.413Z,164.57
2024-01-24T00:13:14.383Z,166.37
2024-01-24T00:14:14.377Z,165.75
2024-01-24T00:15:14.463Z,164.15
2024-01-24T00:16:14.472Z,164.61
2024-01-24T00:17:14.483Z,164.13
2024-01-24T00:18:14.694Z,163.52
2024-01-24T00:19:14.594Z,164.01
2024-01-24T00:20:14.579Z,164.77
2024-01-24T00:21:14.617Z,163.82
2024-01-24T00:22:14.617Z,164.67
2024-01-24T00:23:14.650Z,166.09
2024-01-24T00:24:14.694Z,165.24
2024-01-24T00:25:14.662Z,164.64
2024-01-24T00:26:14.698Z,163.15
2024-01-24T00:27:14.743Z,161.03
2024-01-24T00:28:14.730Z,156.79
2024-01-24T00:29:14.752Z,157.87
2024-01-24T00:30:14.864Z,159.46
2024-01-24T00:31:14.850Z,155.73
2024-01-24T00:32:14.877Z,153.58
2024-01-24T00:33:14.929Z,152.85
2024-01-24T00:34:15.057Z,155.53
2024-01-24T00:35:14.917Z,156.09
2024-01-24T00:36:14.921Z,156.01
2024-01-24T00:37:14.993Z,152.13
2024-01-24T00:38:15.045Z,155.74
2024-01-24T00:39:15.118Z,158.54
2024-01-24T00:40:15.103Z,155.51
2024-01-24T00:41:15.161Z,155.46
2024-01-24T00:42:15.221Z,157.46
2024-01-24T00:43:16.150Z,152.91
2024-01-24T00:44:15.337Z,155.64
2024-01-24T00:45:15.482Z,154.72
2024-01-24T00:46:15.565Z,155.75
2024-01-24T00:47:15.626Z,154.72
2024-01-24T00:48:15.780Z,153.50
2024-01-24T00:49:15.690Z,154.46
2024-01-24T00:50:15.696Z,155.07
2024-01-24T00:51:15.652Z,153.22
2024-01-24T00:52:15.646Z,154.61
2024-01-24T00:53:15.652Z,154.88
2024-01-24T00:54:15.733Z,153.86
2024-01-24T00:55:15.678Z,154.69
2024-01-24T00:56:15.713Z,155.09
2024-01-24T00:57:15.768Z,154.96
2024-01-24T00:58:15.746Z,154.55
2024-01-24T00:59:15.798Z,158.09
2024-01-24T01:00:15.860Z,152.63
2024-01-24T01:01:15.961Z,155.93
2024-01-24T01:02:15.926Z,154.33
2024-01-24T01:03:16.068Z,156.74
2024-01-24T01:04:16.043Z,154.00
2024-01-24T01:05:16.055Z,153.39
2024-01-24T01:06:16.116Z,154.52
2024-01-24T01:07:16.162Z,154.98
2024-01-24T01:08:16.175Z,154.77
2024-01-24T01:09:16.270Z,154.07
2024-01-24T01:10:16.224Z,152.98
2024-01-24T01:11:16.301Z,155.24
2024-01-24T01:12:16.400Z,155.31
2024-01-24T01:13:16.392Z,155.49
2024-01-24T01:14:16.458Z,156.93
2024-01-24T01:15:16.542Z,157.10
2024-01-24T01:16:16.567Z,155.52
2024-01-24T01:17:16.672Z,154.47
2024-01-24T01:18:16.741Z,154.31
2024-01-24T01:19:16.874Z,153.68
2024-01-24T01:20:16.849Z,155.14
2024-01-24T01:21:16.975Z,153.53
2024-01-24T01:22:16.973Z,155.32
2024-01-24T01:23:16.997Z,154.30
2024-01-24T01:24:17.157Z,151.80
2024-01-24T01:25:17.139Z,151.70
2024-01-24T01:26:17.162Z,151.91
2024-01-24T01:27:17.300Z,155.17
2024-01-24T01:28:17.250Z,154.56
2024-01-24T01:29:17.285Z,155.15
2024-01-24T01:30:17.390Z,152.52
2024-01-24T01:31:17.448Z,157.03
2024-01-24T01:32:17.514Z,157.20
2024-01-24T01:33:17.695Z,155.91
2024-01-24T01:34:17.678Z,154.96
2024-01-24T01:35:17.666Z,156.27
2024-01-24T01:36:22.972Z,154.78
2024-01-24T01:37:18.737Z,154.85
2024-01-24T01:38:17.728Z,154.86
2024-01-24T01:39:17.749Z,155.43
2024-01-24T01:40:17.698Z,155.16
2024-01-24T01:41:17.759Z,155.71
2024-01-24T01:42:17.736Z,155.67
2024-01-24T01:43:17.730Z,156.00
2024-01-24T01:44:17.745Z,156.55
2024-01-24T01:45:17.812Z,156.36
2024-01-24T01:46:17.745Z,153.97
2024-01-24T01:47:17.747Z,155.04
2024-01-24T01:48:17.871Z,155.27
2024-01-24T01:49:17.817Z,154.93
2024-01-24T01:50:17.758Z,155.82
2024-01-24T01:51:17.751Z,155.88
2024-01-24T01:52:17.809Z,152.85
2024-01-24T01:53:17.833Z,153.64
2024-01-24T01:54:17.937Z,152.30
2024-01-24T01:55:17.942Z,155.07
2024-01-24T01:56:18.015Z,156.98
2024-01-24T01:57:18.142Z,154.70
2024-01-24T01:58:18.108Z,155.84
2024-01-24T01:59:18.166Z,155.01
2024-01-24T02:00:18.251Z,156.00
2024-01-24T02:01:18.405Z,154.95
2024-01-24T02:02:18.336Z,155.05
2024-01-24T02:03:18.444Z,154.92
2024-01-24T02:04:18.491Z,155.14
2024-01-24T02:05:18.498Z,156.59
2024-01-24T02:06:18.676Z,156.58
2024-01-24T02:07:18.635Z,154.50
2024-01-24T02:08:18.588Z,155.93
2024-01-24T02:09:18.632Z,157.13
2024-01-24T02:10:18.666Z,154.94
2024-01-24T02:11:18.749Z,155.20
2024-01-24T02:12:18.800Z,154.66
2024-01-24T02:13:18.813Z,156.23
2024-01-24T02:14:18.876Z,156.64
2024-01-24T02:15:18.951Z,154.19
2024-01-24T02:16:21.275Z,155.02
2024-01-24T02:17:19.163Z,156.94
2024-01-24T02:18:19.221Z,155.64
2024-01-24T02:19:19.263Z,157.47
2024-01-24T02:20:19.296Z,157.96
2024-01-24T02:21:19.342Z,157.19
2024-01-24T02:22:19.433Z,155.82
2024-01-24T02:23:19.456Z,156.64
2024-01-24T02:24:19.522Z,155.71
2024-01-24T02:25:19.561Z,156.32
2024-01-24T02:26:19.579Z,155.35
2024-01-24T02:27:19.649Z,153.89
2024-01-24T02:28:19.681Z,155.74
2024-01-24T02:29:19.725Z,158.64
2024-01-24T02:30:19.767Z,154.03
2024-01-24T02:31:19.818Z,155.50
2024-01-24T02:32:19.855Z,154.99
2024-01-24T02:33:20.015Z,158.04
2024-01-24T02:34:20.025Z,157.03
2024-01-24T02:35:19.993Z,155.00
2024-01-24T02:36:20.060Z,157.11
2024-01-24T02:37:20.092Z,157.45
2024-01-24T02:38:20.129Z,156.31
2024-01-24T02:39:20.247Z,156.27
2024-01-24T02:40:20.211Z,157.83
2024-01-24T02:41:20.270Z,157.67
2024-01-24T02:42:20.334Z,157.69
2024-01-24T02:43:20.334Z,157.00
2024-01-24T02:44:20.407Z,156.60
2024-01-24T02:45:20.445Z,156.27
2024-01-24T02:46:20.470Z,157.61
2024-01-24T02:47:20.484Z,157.42
2024-01-24T02:48:20.633Z,158.68
2024-01-24T02:49:20.632Z,157.04
2024-01-24T02:50:20.641Z,156.26
2024-01-24T02:51:20.663Z,159.18
2024-01-24T02:52:20.695Z,159.71
2024-01-24T02:53:20.735Z,155.93
2024-01-24T02:54:20.795Z,157.63
2024-01-24T02:55:20.824Z,158.91
2024-01-24T02:56:20.867Z,159.70
2024-01-24T02:57:20.910Z,159.92
2024-01-24T02:58:20.942Z,160.63
2024-01-24T02:59:20.976Z,159.41
2024-01-24T03:00:21.035Z,156.93
2024-01-24T03:01:21.168Z,161.02
2024-01-24T03:02:21.084Z,160.57
2024-01-24T03:03:21.183Z,160.77
2024-01-24T03:04:21.372Z,161.24
2024-01-24T03:05:21.196Z,160.75
2024-01-24T03:06:21.334Z,161.50
2024-01-24T03:07:21.299Z,162.20
2024-01-24T03:08:21.325Z,160.25
2024-01-24T03:09:21.361Z,161.60
2024-01-24T03:10:21.362Z,163.62
2024-01-24T03:11:21.435Z,161.90
2024-01-24T03:12:21.489Z,162.02
2024-01-24T03:13:21.558Z,163.37
2024-01-24T03:14:21.543Z,161.72
2024-01-24T03:15:21.604Z,162.83
2024-01-24T03:16:21.618Z,165.75
2024-01-24T03:17:21.651Z,160.92
2024-01-24T03:18:21.827Z,163.97
2024-01-24T03:19:21.838Z,163.98
2024-01-24T03:20:21.769Z,166.00
2024-01-24T03:21:21.829Z,166.24
2024-01-24T03:22:21.823Z,165.48
2024-01-24T03:23:21.875Z,166.41
2024-01-24T03:24:21.913Z,166.55
2024-01-24T03:25:21.936Z,168.27
2024-01-24T03:26:21.949Z,166.34
2024-01-24T03:27:21.987Z,164.66
2024-01-24T03:28:22.037Z,166.84
2024-01-24T03:29:22.068Z,167.40
2024-01-24T03:30:22.098Z,165.75
2024-01-24T03:31:22.095Z,164.25
2024-01-24T03:32:22.127Z,165.79
2024-01-24T03:33:22.196Z,165.44
2024-01-24T03:34:22.232Z,167.53
2024-01-24T03:35:22.200Z,166.06
2024-01-24T03:36:22.265Z,165.68
2024-01-24T03:37:22.233Z,165.61
2024-01-24T03:38:22.285Z,168.12
2024-01-24T03:39:22.336Z,166.60
2024-01-24T03:40:22.354Z,167.23
2024-01-24T03:41:22.347Z,166.86
2024-01-24T03:42:22.446Z,167.34
2024-01-24T03:43:22.485Z,167.20
2024-01-24T03:44:22.448Z,171.08
2024-01-24T03:45:22.576Z,170.48
2024-01-24T03:46:22.510Z,170.45
2024-01-24T03:47:22.507Z,169.23
2024-01-24T03:48:22.626Z,169.98
2024-01-24T03:49:22.951Z,168.95
2024-01-24T03:50:22.587Z,169.63
2024-01-24T03:51:22.736Z,168.89
2024-01-24T03:52:22.722Z,170.94
2024-01-24T03:53:22.733Z,169.61
2024-01-24T03:54:22.744Z,170.17
2024-01-24T03:55:22.770Z,169.02
2024-01-24T03:56:22.780Z,167.71
2024-01-24T03:57:22.839Z,171.94
2024-01-24T03:58:22.831Z,170.53
2024-01-24T03:59:22.858Z,169.03
2024-01-24T04:00:22.920Z,170.55
2024-01-24T04:01:23.030Z,169.79
2024-01-24T04:02:22.952Z,170.64
2024-01-24T04:03:23.071Z,171.54
2024-01-24T04:04:23.179Z,170.35
2024-01-24T04:05:23.013Z,169.91
2024-01-24T04:06:23.110Z,169.97
2024-01-24T04:07:23.082Z,170.30
2024-01-24T04:08:23.032Z,169.75
2024-01-24T04:09:23.125Z,172.09
2024-01-24T04:10:23.079Z,170.43
2024-01-24T04:11:23.128Z,170.04
2024-01-24T04:12:23.213Z,168.59
2024-01-24T04:13:23.178Z,171.44
2024-01-24T04:14:23.180Z,169.24
2024-01-24T04:15:23.345Z,170.93
2024-01-24T04:16:23.225Z,170.32
2024-01-24T04:17:23.271Z,169.23
2024-01-24T04:18:23.342Z,169.96
2024-01-24T04:19:23.381Z,170.10
2024-01-24T04:20:23.380Z,169.32
2024-01-24T04:21:23.367Z,171.87
2024-01-24T04:22:23.373Z,170.27
2024-01-24T04:23:23.508Z,169.95
2024-01-24T04:24:23.543Z,172.48
2024-01-24T04:25:23.415Z,171.04
2024-01-24T04:26:23.552Z,170.70
2024-01-24T04:27:23.586Z,172.32
2024-01-24T04:28:23.546Z,169.82
2024-01-24T04:29:23.585Z,171.35
2024-01-24T04:30:24.260Z,172.91
2024-01-24T04:31:23.657Z,170.89
2024-01-24T04:32:23.632Z,173.49
2024-01-24T04:33:23.716Z,172.90
2024-01-24T04:34:31.103Z,50.00
2024-01-24T04:35:30.998Z,50.00
2024-01-24T04:36:31.034Z,50.00
2024-01-24T04:37:31.032Z,50.00
2024-01-24T04:38:31.018Z,50.00
2024-01-24T04:39:31.049Z,50.88
2024-01-24T04:40:31.038Z,50.46
2024-01-24T04:41:31.052Z,50.00
2024-01-24T04:42:31.016Z,52.25
2024-01-24T04:43:31.030Z,51.15
2024-01-24T04:44:31.028Z,51.95
2024-01-24T04:45:31.054Z,51.48
2024-01-24T04:46:31.013Z,50.77
2024-01-24T04:47:31.044Z,51.37
2024-01-24T04:48:31.099Z,53.23
2024-01-24T04:49:40.246Z,55.19
2024-01-24T04:50:32.162Z,54.47
2024-01-24T04:51:31.093Z,54.41
2024-01-24T04:52:31.037Z,54.00
2024-01-24T04:53:31.081Z,52.66
2024-01-24T04:54:31.040Z,54.66
2024-01-24T04:55:31.043Z,53.12
2024-01-24T04:56:31.044Z,52.41
2024-01-24T04:57:31.093Z,50.95
2024-01-24T04:58:31.059Z,52.99
2024-01-24T04:59:32.093Z,53.49
2024-01-24T05:00:31.079Z,51.81
2024-01-24T05:01:31.124Z,54.29
2024-01-24T05:02:31.076Z,54.77
2024-01-24T05:03:31.102Z,51.82
2024-01-24T05:04:31.118Z,52.88
2024-01-24T05:05:31.071Z,51.47
2024-01-24T05:06:31.079Z,51.68
2024-01-24T05:07:31.043Z,53.13
2024-01-24T05:08:31.054Z,52.43
2024-01-24T05:09:31.095Z,51.91
2024-01-24T05:10:31.032Z,53.02
2024-01-24T05:11:31.046Z,50.99
2024-01-24T05:12:31.062Z,52.41
2024-01-24T05:13:31.048Z,54.31
2024-01-24T05:14:31.029Z,53.89
2024-01-24T05:15:31.057Z,53.57
2024-01-24T05:16:31.070Z,53.75
2024-01-24T05:17:31.046Z,52.94
2024-01-24T05:18:31.144Z,54.69
2024-01-24T05:19:31.092Z,51.97
2024-01-24T05:20:31.039Z,53.98
2024-01-24T05:21:31.055Z,54.27
2024-01-24T05:22:31.062Z,51.90
2024-01-24T05:23:31.043Z,53.05
2024-01-24T05:24:31.086Z,53.28
2024-01-24T05:25:31.060Z,52.18
2024-01-24T05:26:31.066Z,54.31
2024-01-24T05:27:31.109Z,55.10
2024-01-24T05:28:31.058Z,52.27
2024-01-24T05:29:31.059Z,55.16
2024-01-24T05:30:35.775Z,55.60
2024-01-24T05:31:32.117Z,55.66
2024-01-24T05:32:31.112Z,55.73
2024-01-24T05:33:31.273Z,55.22
2024-01-24T05:34:31.236Z,54.40
2024-01-24T05:35:31.101Z,54.10
2024-01-24T05:36:31.140Z,55.87
2024-01-24T05:37:31.105Z,54.35
2024-01-24T05:38:31.067Z,54.86
2024-01-24T05:39:31.133Z,53.78
2024-01-24T05:40:31.066Z,54.86
2024-01-24T05:41:31.055Z,53.48
2024-01-24T05:42:31.086Z,54.16
2024-01-24T05:43:31.096Z,55.40
2024-01-24T05:44:31.075Z,55.00
2024-01-24T05:45:31.120Z,54.03
2024-01-24T05:46:31.073Z,53.85
2024-01-24T05:47:31.189Z,53.96
2024-01-24T05:48:31.259Z,55.13
2024-01-24T05:49:31.369Z,56.67
2024-01-24T05:50:31.187Z,56.65
2024-01-24T05:51:31.299Z,55.16
2024-01-24T05:52:31.317Z,54.74
2024-01-24T05:53:31.319Z,57.19
2024-01-24T05:54:31.415Z,56.96
2024-01-24T05:55:31.421Z,54.72
2024-01-24T05:56:31.459Z,54.08
2024-01-24T05:57:31.493Z,54.16
2024-01-24T05:58:31.546Z,54.32
2024-01-24T05:59:31.615Z,55.96
2024-01-24T06:01:54.227Z,55.88
2024-01-24T06:02:31.639Z,55.98
2024-01-24T06:03:31.715Z,57.18
2024-01-24T06:04:31.754Z,58.94
2024-01-24T06:05:31.739Z,59.75
2024-01-24T06:06:31.701Z,61.99
2024-01-24T06:07:31.700Z,63.65
2024-01-24T06:08:31.649Z,62.49
2024-01-24T06:09:31.702Z,58.99
2024-01-24T06:10:31.635Z,59.68
2024-01-24T06:11:31.612Z,60.35
2024-01-24T06:12:31.667Z,60.46
2024-01-24T06:13:31.655Z,60.13
2024-01-24T06:14:31.654Z,57.93
2024-01-24T06:15:31.661Z,60.15
2024-01-24T06:16:31.660Z,60.29
2024-01-24T06:17:34.008Z,59.30
2024-01-24T06:18:31.688Z,59.58
2024-01-24T06:19:31.696Z,59.07
2024-01-24T06:20:31.617Z,60.31
2024-01-24T06:21:31.636Z,59.37
2024-01-24T06:22:31.644Z,59.52
2024-01-24T06:23:31.685Z,58.80
2024-01-24T06:24:31.693Z,58.74
2024-01-24T06:25:31.677Z,59.32
2024-01-24T06:26:31.673Z,60.54
2024-01-24T06:27:31.691Z,59.95
2024-01-24T06:28:31.653Z,59.94
2024-01-24T06:30:15.618Z,58.93
2024-01-24T06:30:32.696Z,59.02
2024-01-24T06:31:31.655Z,59.03
2024-01-24T06:32:31.719Z,59.54
2024-01-24T06:33:31.728Z,60.24
2024-01-24T06:34:31.714Z,59.90
2024-01-24T06:35:31.684Z,60.29
2024-01-24T06:36:31.745Z,60.30
2024-01-24T06:37:31.676Z,60.74
2024-01-24T06:38:31.659Z,60.34
2024-01-24T06:39:31.709Z,59.66
2024-01-24T06:40:31.676Z,63.02
2024-01-24T06:41:31.677Z,60.52
2024-01-24T06:42:31.726Z,59.79
2024-01-24T06:43:31.742Z,61.59
2024-01-24T06:44:31.746Z,58.80
2024-01-24T06:45:31.878Z,62.74
2024-01-24T06:46:54.350Z,62.15
2024-01-24T06:47:31.850Z,62.27
2024-01-24T06:48:32.308Z,62.90
2024-01-24T06:49:32.161Z,63.66
2024-01-24T06:50:31.860Z,63.38
2024-01-24T06:51:31.900Z,65.29
2024-01-24T06:52:31.882Z,68.75
2024-01-24T06:53:31.901Z,65.46
2024-01-24T06:54:31.895Z,64.86
2024-01-24T06:55:31.849Z,66.80
2024-01-24T06:56:31.857Z,66.03
2024-01-24T06:57:31.867Z,64.50
2024-01-24T06:58:31.912Z,63.99
2024-01-24T06:59:31.901Z,65.91
2024-01-24T07:00:31.894Z,67.75
2024-01-24T07:01:31.983Z,65.81
2024-01-24T07:02:31.912Z,67.21
2024-01-24T07:03:32.023Z,66.28
2024-01-24T07:04:31.933Z,67.80
2024-01-24T07:05:31.887Z,65.60
2024-01-24T07:06:31.992Z,67.46
2024-01-24T07:07:31.985Z,67.09
2024-01-24T07:08:32.095Z,68.12
2024-01-24T07:09:32.126Z,64.97
2024-01-24T07:10:32.150Z,67.24
2024-01-24T07:11:32.224Z,66.38
2024-01-24T07:12:32.259Z,68.50
2024-01-24T07:13:32.286Z,67.47
2024-01-24T07:14:32.344Z,69.52
2024-01-24T07:15:32.371Z,68.43
2024-01-24T07:16:32.436Z,68.98
2024-01-24T07:17:32.507Z,70.18
2024-01-24T07:18:32.684Z,68.54
2024-01-24T07:19:32.652Z,69.89
2024-01-24T07:20:32.641Z,67.86
2024-01-24T07:21:32.719Z,69.41
2024-01-24T07:22:32.852Z,70.19
2024-01-24T07:23:32.780Z,74.28
2024-01-24T07:24:32.868Z,71.54
2024-01-24T07:25:32.840Z,70.92
2024-01-24T07:26:32.941Z,71.75
2024-01-24T07:27:35.101Z,72.76
2024-01-24T07:28:33.010Z,68.85
2024-01-24T07:29:33.044Z,72.07
2024-01-24T07:30:32.991Z,73.24
2024-01-24T07:31:32.996Z,73.67
2024-01-24T07:32:33.065Z,74.41
2024-01-24T07:33:33.062Z,72.69
2024-01-24T07:34:33.110Z,75.15
2024-01-24T07:35:33.008Z,73.64
2024-01-24T07:36:33.029Z,72.94
2024-01-24T07:37:33.017Z,73.39
2024-01-24T07:38:33.035Z,73.79
2024-01-24T07:39:33.035Z,75.24
2024-01-24T07:40:32.986Z,75.08
2024-01-24T07:41:32.994Z,73.38
2024-01-24T07:42:33.061Z,74.89
2024-01-24T07:43:33.330Z,75.79
2024-01-24T07:44:33.484Z,74.36
2024-01-24T07:45:33.032Z,75.62
2024-01-24T07:46:34.008Z,75.65
2024-01-24T07:47:33.027Z,75.75
2024-01-24T07:48:33.136Z,75.93
2024-01-24T07:49:34.134Z,76.43
2024-01-24T07:50:33.035Z,75.88
2024-01-24T07:51:33.026Z,76.99
2024-01-24T07:52:40.601Z,76.29
2024-01-24T07:53:34.410Z,76.38
2024-01-24T07:54:33.107Z,76.77
2024-01-24T07:55:41.621Z,76.31
2024-01-24T07:56:34.775Z,76.36
2024-01-24T07:57:33.037Z,76.78
2024-01-24T07:58:33.201Z,76.64
2024-01-24T07:59:33.021Z,76.92
2024-01-24T08:00:33.111Z,79.98
2024-01-24T08:01:33.133Z,77.29
2024-01-24T08:02:33.055Z,79.46
2024-01-24T08:03:33.092Z,77.52
2024-01-24T08:04:33.060Z,76.36
2024-01-24T08:05:33.069Z,78.49
2024-01-24T08:06:33.185Z,78.53
2024-01-24T08:07:32.996Z,78.48
2024-01-24T08:08:33.023Z,77.52
2024-01-24T08:09:33.076Z,78.92
2024-01-24T08:10:33.100Z,78.66
2024-01-24T08:11:33.135Z,75.78
2024-01-24T08:12:33.266Z,79.89
2024-01-24T08:13:33.224Z,79.51
2024-01-24T08:14:33.224Z,79.17
2024-01-24T08:15:33.286Z,81.09
2024-01-24T08:16:33.270Z,80.84
2024-01-24T08:17:33.388Z,81.22
2024-01-24T08:18:33.460Z,80.84
2024-01-24T08:19:33.533Z,79.14
2024-01-24T08:20:33.463Z,80.58
2024-01-24T08:21:33.615Z,80.18
2024-01-24T08:22:33.526Z,79.65
2024-01-24T08:23:42.221Z,80.12
2024-01-24T08:24:34.598Z,80.20
2024-01-24T08:25:33.566Z,80.50
2024-01-24T08:26:33.617Z,81.33
2024-01-24T08:27:33.670Z,81.34
2024-01-24T08:28:33.560Z,80.45
2024-01-24T08:29:37.605Z,82.29
2024-01-24T08:30:33.612Z,82.02
2024-01-24T08:31:33.543Z,82.51
2024-01-24T08:32:33.679Z,82.86
2024-01-24T08:33:33.717Z,83.39
2024-01-24T08:34:33.603Z,82.54
2024-01-24T08:35:33.617Z,83.90
2024-01-24T08:36:33.570Z,83.15
2024-01-24T08:37:33.593Z,83.37
2024-01-24T08:38:33.621Z,83.74
2024-01-24T08:39:33.632Z,85.86
2024-01-24T08:40:33.566Z,85.47
2024-01-24T08:41:33.708Z,83.27
2024-01-24T08:42:33.600Z,85.77
2024-01-24T08:43:33.556Z,86.47
2024-01-24T08:44:33.588Z,87.39
2024-01-24T08:45:33.669Z,86.78
2024-01-24T08:46:33.617Z,85.59
2024-01-24T08:47:33.661Z,85.75
2024-01-24T08:48:33.753Z,86.33
2024-01-24T08:49:33.845Z,89.42
2024-01-24T08:50:33.707Z,86.20
2024-01-24T08:51:33.807Z,86.29
2024-01-24T08:52:33.801Z,86.54
2024-01-24T08:53:33.844Z,87.40
2024-01-24T08:54:34.979Z,88.82
2024-01-24T08:55:34.013Z,88.26
2024-01-24T08:56:34.017Z,89.63
2024-01-24T08:57:34.105Z,87.06
2024-01-24T08:58:34.085Z,89.85
2024-01-24T08:59:34.157Z,86.21
2024-01-24T09:00:34.223Z,89.24
2024-01-24T09:01:34.330Z,88.20
2024-01-24T09:02:34.325Z,90.04
2024-01-24T09:03:34.421Z,89.64
2024-01-24T09:04:34.537Z,89.50
2024-01-24T09:05:34.426Z,88.70
2024-01-24T09:06:34.456Z,88.09
2024-01-24T09:07:34.462Z,89.83
2024-01-24T09:08:34.546Z,91.07
2024-01-24T09:09:34.812Z,89.31
2024-01-24T09:10:34.643Z,90.57
2024-01-24T09:11:38.581Z,89.84
2024-01-24T09:12:35.683Z,89.94
2024-01-24T09:13:34.651Z,90.40
2024-01-24T09:14:34.667Z,90.32
2024-01-24T09:15:35.861Z,89.86
2024-01-24T09:16:34.656Z,89.95
2024-01-24T09:17:34.656Z,90.99
2024-01-24T09:18:34.989Z,90.76
2024-01-24T09:19:34.772Z,93.66
2024-01-24T09:20:34.685Z,88.68
2024-01-24T09:21:34.678Z,90.95
2024-01-24T09:22:34.724Z,90.81
2024-01-24T09:23:34.713Z,92.42
2024-01-24T09:24:34.688Z,92.04
2024-01-24T09:25:34.668Z,93.25
2024-01-24T09:26:34.710Z,92.32
2024-01-24T09:27:34.790Z,92.59
2024-01-24T09:28:34.690Z,92.43
2024-01-24T09:29:34.755Z,92.54
2024-01-24T09:30:34.776Z,90.56
2024-01-24T09:31:34.827Z,90.00
2024-01-24T09:32:34.990Z,91.66
2024-01-24T09:33:36.902Z,90.27
2024-01-24T09:34:35.079Z,91.34
2024-01-24T09:35:35.063Z,91.20
2024-01-24T09:36:34.937Z,92.34
2024-01-24T09:37:34.921Z,91.18
2024-01-24T09:38:34.871Z,91.47
2024-01-24T09:39:35.333Z,90.69
2024-01-24T09:40:35.007Z,92.47
2024-01-24T09:41:34.891Z,92.58
2024-01-24T09:42:34.934Z,92.10
2024-01-24T09:43:34.906Z,91.33
2024-01-24T09:44:34.917Z,89.85
2024-01-24T09:45:34.973Z,91.69
2024-01-24T09:46:34.898Z,91.30
2024-01-24T09:47:34.933Z,90.19
2024-01-24T09:48:34.919Z,92.75
2024-01-24T09:49:35.077Z,88.67
2024-01-24T09:50:34.915Z,90.06
2024-01-24T09:51:34.941Z,90.80
2024-01-24T09:52:34.977Z,90.96
2024-01-24T09:53:34.905Z,88.68
2024-01-24T09:54:34.957Z,87.56
2024-01-24T09:55:34.926Z,91.19
2024-01-24T09:56:35.009Z,90.45
2024-01-24T09:57:35.061Z,88.56
2024-01-24T09:58:34.911Z,89.65
2024-01-24T09:59:35.324Z,90.34
2024-01-24T10:00:35.017Z,89.35
2024-01-24T10:01:34.993Z,89.71
2024-01-24T10:02:34.926Z,89.19
2024-01-24T10:03:37.774Z,87.12
2024-01-24T10:04:35.001Z,87.22
2024-01-24T10:05:34.950Z,87.42
2024-01-24T10:06:35.011Z,87.37
2024-01-24T10:07:34.975Z,87.50
2024-01-24T10:08:34.951Z,86.97
2024-01-24T10:09:35.402Z,85.69
2024-01-24T10:10:34.914Z,88.92
2024-01-24T10:11:34.925Z,87.86
2024-01-24T10:12:34.961Z,86.92
2024-01-24T10:13:34.939Z,88.57
2024-01-24T10:14:34.952Z,88.21
2024-01-24T10:15:34.963Z,86.26
2024-01-24T10:16:34.965Z,87.16
2024-01-24T10:17:35.041Z,87.31
2024-01-24T10:18:35.058Z,86.95
2024-01-24T10:19:35.030Z,86.97
2024-01-24T10:20:34.954Z,87.34
2024-01-24T10:21:34.975Z,87.49
2024-01-24T10:22:34.975Z,88.23
2024-01-24T10:23:35.308Z,87.77
2024-01-24T10:24:34.998Z,87.21
2024-01-24T10:25:34.971Z,85.74
2024-01-24T10:26:35.005Z,87.73
2024-01-24T10:27:35.011Z,85.93
2024-01-24T10:28:34.979Z,85.27
2024-01-24T10:29:35.381Z,86.12
2024-01-24T10:30:35.001Z,83.88
2024-01-24T10:31:34.991Z,87.72
2024-01-24T10:32:34.984Z,86.22
2024-01-24T10:33:35.065Z,86.19
2024-01-24T10:34:35.128Z,85.38
2024-01-24T10:35:34.993Z,85.12
2024-01-24T10:36:35.258Z,86.03
2024-01-24T10:37:35.476Z,85.61
2024-01-24T10:38:34.955Z,87.68
2024-01-24T10:39:35.047Z,85.72
2024-01-24T10:40:35.044Z,87.19
2024-01-24T10:41:34.988Z,88.60
2024-01-24T10:42:34.965Z,85.31
2024-01-24T10:43:34.946Z,86.55
2024-01-24T10:44:34.980Z,84.95
2024-01-24T10:45:35.416Z,85.64
2024-01-24T10:46:35.003Z,85.95
2024-01-24T10:47:35.026Z,87.28
2024-01-24T10:48:35.213Z,85.41
2024-01-24T10:49:35.035Z,84.79
2024-01-24T10:50:35.336Z,85.54
2024-01-24T10:51:35.290Z,86.65
2024-01-24T10:52:35.996Z,86.67
2024-01-24T10:53:35.020Z,86.18
2024-01-24T10:54:35.035Z,84.85
2024-01-24T10:55:35.351Z,84.74
2024-01-24T10:56:35.089Z,85.00
2024-01-24T10:57:35.016Z,85.50
2024-01-24T10:58:34.983Z,84.65
2024-01-24T10:59:35.001Z,83.55
2024-01-24T11:00:35.082Z,84.68
2024-01-24T11:01:35.073Z,84.72
2024-01-24T11:02:35.057Z,83.74
2024-01-24T11:03:35.118Z,84.11
2024-01-24T11:04:35.073Z,81.14
2024-01-24T11:05:35.070Z,82.87
2024-01-24T11:06:35.111Z,82.49
2024-01-24T11:07:34.995Z,81.56
2024-01-24T11:08:40.521Z,82.69
2024-01-24T11:09:36.092Z,82.75
2024-01-24T11:10:35.027Z,82.88
2024-01-24T11:11:35.019Z,81.78
2024-01-24T11:12:35.034Z,82.12
2024-01-24T11:13:35.011Z,84.61
2024-01-24T11:14:35.235Z,82.38
2024-01-24T11:15:35.070Z,82.04
2024-01-24T11:16:35.008Z,82.84
2024-01-24T11:17:35.055Z,81.43
2024-01-24T11:18:35.188Z,82.71
2024-01-24T11:19:35.327Z,84.14
2024-01-24T11:20:35.039Z,79.67
2024-01-24T11:21:36.743Z,82.60
2024-01-24T11:22:35.076Z,82.22
2024-01-24T11:23:35.008Z,81.86
2024-01-24T11:24:35.054Z,81.50
2024-01-24T11:25:35.040Z,80.74
2024-01-24T11:26:35.044Z,82.51
2024-01-24T11:27:35.932Z,81.23
2024-01-24T11:28:35.099Z,82.55
2024-01-24T11:29:35.160Z,79.15
2024-01-24T11:30:35.217Z,79.06
2024-01-24T11:31:35.217Z,79.54
2024-01-24T11:32:35.308Z,81.72
2024-01-24T11:33:35.468Z,79.78
2024-01-24T11:34:35.474Z,80.61
2024-01-24T11:35:35.515Z,79.82
2024-01-24T11:36:35.398Z,81.79
2024-01-24T11:37:35.425Z,79.21
2024-01-24T11:38:35.449Z,80.22
2024-01-24T11:39:35.614Z,76.99
2024-01-24T11:40:35.880Z,77.79
2024-01-24T11:41:35.573Z,79.15
2024-01-24T11:42:35.662Z,78.26
2024-01-24T11:43:38.305Z,80.40
2024-01-24T11:44:35.614Z,79.25
2024-01-24T11:45:35.972Z,77.73
2024-01-24T11:46:35.631Z,79.24
2024-01-24T11:47:35.657Z,78.05
2024-01-24T11:48:35.798Z,79.09
2024-01-24T11:49:35.701Z,77.72
2024-01-24T11:50:36.272Z,78.43
2024-01-24T11:51:35.694Z,77.62
2024-01-24T11:52:35.637Z,75.83
2024-01-24T11:53:35.624Z,76.21
2024-01-24T11:54:35.711Z,74.47
2024-01-24T11:55:35.859Z,75.78
2024-01-24T11:56:35.683Z,73.42
2024-01-24T11:57:35.688Z,77.20
2024-01-24T11:58:35.600Z,74.26
2024-01-24T11:59:35.632Z,76.54
2024-01-24T12:00:35.724Z,74.53
2024-01-24T12:01:35.731Z,72.55
2024-01-24T12:02:35.644Z,73.48
2024-01-24T12:03:35.669Z,72.59
2024-01-24T12:04:35.693Z,74.53
2024-01-24T12:05:35.664Z,75.87
2024-01-24T12:06:35.727Z,73.07
2024-01-24T12:07:35.726Z,75.31
2024-01-24T12:08:35.626Z,72.56
2024-01-24T12:09:35.702Z,73.96
2024-01-24T12:10:35.655Z,74.04
2024-01-24T12:11:35.680Z,72.57
2024-01-24T12:12:35.637Z,73.73
2024-01-24T12:13:35.673Z,73.41
2024-01-24T12:14:35.670Z,73.70
2024-01-24T12:15:35.736Z,74.32
2024-01-24T12:16:35.723Z,71.82
2024-01-24T12:17:35.830Z,72.14
2024-01-24T12:18:35.967Z,72.15
2024-01-24T12:19:35.837Z,72.30
2024-01-24T12:20:35.826Z,72.82
2024-01-24T12:21:35.816Z,73.06
2024-01-24T12:22:35.769Z,74.13
2024-01-24T12:23:35.785Z,72.44
2024-01-24T12:24:35.783Z,71.02
2024-01-24T12:25:35.789Z,70.57
2024-01-24T12:26:35.888Z,70.86
2024-01-24T12:27:36.832Z,70.88
2024-01-24T12:28:35.820Z,70.73
2024-01-24T12:29:35.834Z,71.15
2024-01-24T12:30:35.994Z,68.41
2024-01-24T12:31:35.893Z,69.72
2024-01-24T12:32:35.829Z,70.87
2024-01-24T12:33:36.967Z,68.57
2024-01-24T12:34:35.914Z,69.85
2024-01-24T12:35:35.814Z,70.50
2024-01-24T12:36:35.981Z,70.06
2024-01-24T12:37:35.793Z,67.19
2024-01-24T12:38:35.899Z,68.82
2024-01-24T12:39:35.946Z,69.71
2024-01-24T12:40:35.848Z,69.56
2024-01-24T12:41:35.901Z,67.63
2024-01-24T12:42:35.956Z,67.45
2024-01-24T12:43:35.983Z,67.80
2024-01-24T12:44:36.009Z,69.61